sensor_id;sensor_type;location;lat;lon;timestamp;pressure;altitude;pressure_sealevel;temperature;humidity
13241;BME280;6687;47.790;7.322;2022-11-09T05:21:23;98684.41;;;12.85;95.86
13241;BME280;6687;47.790;7.322;2022-11-09T05:23:50;98681.72;;;12.91;94.97
13241;BME280;6687;47.790;7.322;2022-11-09T05:26:29;98687.09;;;12.77;98.39
13241;BME280;6687;47.790;7.322;2022-11-09T05:28:57;98689.69;;;12.77;97.95
13241;BME280;6687;47.790;7.322;2022-11-09T05:31:24;98688.66;;;12.93;95.47
13241;BME280;6687;47.790;7.322;2022-11-09T05:33:51;98690.34;;;12.96;94.41
13241;BME280;6687;47.790;7.322;2022-11-09T05:36:18;98701.66;;;12.93;95.18
13241;BME280;6687;47.790;7.322;2022-11-09T05:38:47;98701.66;;;12.93;94.53
13241;BME280;6687;47.790;7.322;2022-11-09T05:41:14;98707.69;;;12.96;94.26
13241;BME280;6687;47.790;7.322;2022-11-09T05:43:41;98717.22;;;12.97;93.66
13241;BME280;6687;47.790;7.322;2022-11-09T05:46:09;98710.25;;;12.99;93.28
13241;BME280;6687;47.790;7.322;2022-11-09T05:48:36;98708.47;;;13.02;92.69
13241;BME280;6687;47.790;7.322;2022-11-09T05:51:03;98708.50;;;13.01;92.95
13241;BME280;6687;47.790;7.322;2022-11-09T05:53:30;98709.38;;;13.00;93.03
13241;BME280;6687;47.790;7.322;2022-11-09T05:56:02;98709.38;;;13.00;93.24
13241;BME280;6687;47.790;7.322;2022-11-09T05:58:30;98722.31;;;13.06;92.41
13241;BME280;6687;47.790;7.322;2022-11-09T06:01:02;98713.66;;;13.04;92.46
13241;BME280;6687;47.790;7.322;2022-11-09T06:03:29;98712.75;;;13.09;91.79
13241;BME280;6687;47.790;7.322;2022-11-09T06:05:59;98711.91;;;13.06;92.24
13241;BME280;6687;47.790;7.322;2022-11-09T06:08:26;98717.88;;;13.12;91.81
13241;BME280;6687;47.790;7.322;2022-11-09T06:10:57;98713.59;;;13.10;91.78
13241;BME280;6687;47.790;7.322;2022-11-09T06:13:26;98717.84;;;13.17;91.20
13241;BME280;6687;47.790;7.322;2022-11-09T06:15:53;98717.81;;;13.19;91.11
13241;BME280;6687;47.790;7.322;2022-11-09T06:18:21;98715.28;;;13.14;91.05
13241;BME280;6687;47.790;7.322;2022-11-09T06:20:50;98736.09;;;13.14;91.16
13241;BME280;6687;47.790;7.322;2022-11-09T06:23:17;98738.00;;;12.98;93.07
13241;BME280;6687;47.790;7.322;2022-11-09T06:25:44;98742.22;;;13.07;92.69
13241;BME280;6687;47.790;7.322;2022-11-09T06:28:13;98744.81;;;13.07;92.62
13241;BME280;6687;47.790;7.322;2022-11-09T06:30:41;98745.66;;;13.09;92.02
13241;BME280;6687;47.790;7.322;2022-11-09T06:33:07;98744.81;;;13.10;91.75
13241;BME280;6687;47.790;7.322;2022-11-09T06:35:34;98758.69;;;13.09;92.44
13241;BME280;6687;47.790;7.322;2022-11-09T06:38:01;98755.22;;;13.08;91.69
13241;BME280;6687;47.790;7.322;2022-11-09T06:40:28;98759.50;;;13.11;91.68
13241;BME280;6687;47.790;7.322;2022-11-09T06:42:55;98763.84;;;13.15;91.32
13241;BME280;6687;47.790;7.322;2022-11-09T06:45:22;98765.59;;;13.13;91.46
13241;BME280;6687;47.790;7.322;2022-11-09T06:47:53;98765.59;;;13.13;91.52
13241;BME280;6687;47.790;7.322;2022-11-09T06:50:20;98769.03;;;13.15;91.52
13241;BME280;6687;47.790;7.322;2022-11-09T06:52:47;98764.63;;;13.20;91.19
13241;BME280;6687;47.790;7.322;2022-11-09T06:55:14;98774.16;;;13.21;91.29
13241;BME280;6687;47.790;7.322;2022-11-09T06:57:41;98785.38;;;13.25;91.03
13241;BME280;6687;47.790;7.322;2022-11-09T07:00:09;98778.41;;;13.27;90.96
13241;BME280;6687;47.790;7.322;2022-11-09T07:02:35;98785.34;;;13.28;90.81
13241;BME280;6687;47.790;7.322;2022-11-09T07:05:04;98800.06;;;13.29;91.07
13241;BME280;6687;47.790;7.322;2022-11-09T07:07:31;98801.88;;;13.25;91.26
13241;BME280;6687;47.790;7.322;2022-11-09T07:09:58;98800.13;;;13.24;91.49
13241;BME280;6687;47.790;7.322;2022-11-09T07:12:25;98795.78;;;13.25;91.41
13241;BME280;6687;47.790;7.322;2022-11-09T07:14:51;98805.28;;;13.32;90.79
13241;BME280;6687;47.790;7.322;2022-11-09T07:17:18;98801.78;;;13.35;90.35
13241;BME280;6687;47.790;7.322;2022-11-09T07:19:46;98796.50;;;13.41;89.97
13241;BME280;6687;47.790;7.322;2022-11-09T07:22:14;98805.97;;;13.45;89.87
13241;BME280;6687;47.790;7.322;2022-11-09T07:24:41;98802.50;;;13.47;89.46
13241;BME280;6687;47.790;7.322;2022-11-09T07:27:07;98812.91;;;13.46;89.63
13241;BME280;6687;47.790;7.322;2022-11-09T07:29:34;98815.50;;;13.49;89.62
13241;BME280;6687;47.790;7.322;2022-11-09T07:32:01;98807.63;;;13.53;89.26
13241;BME280;6687;47.790;7.322;2022-11-09T07:34:28;98811.09;;;13.54;89.76
13241;BME280;6687;47.790;7.322;2022-11-09T07:36:55;98810.16;;;13.58;89.49
13241;BME280;6687;47.790;7.322;2022-11-09T07:39:23;98814.44;;;13.64;88.90
13241;BME280;6687;47.790;7.322;2022-11-09T07:41:49;98806.53;;;13.70;89.05
13241;BME280;6687;47.790;7.322;2022-11-09T07:44:16;98816.94;;;13.73;88.40
13241;BME280;6687;47.790;7.322;2022-11-09T07:46:43;98819.47;;;13.78;88.18
13241;BME280;6687;47.790;7.322;2022-11-09T07:49:11;98809.88;;;13.80;88.34
13241;BME280;6687;47.790;7.322;2022-11-09T07:51:39;98815.09;;;13.80;88.53
13241;BME280;6687;47.790;7.322;2022-11-09T07:54:06;98809.78;;;13.86;88.11
13241;BME280;6687;47.790;7.322;2022-11-09T07:56:35;98813.22;;;13.91;88.11
13241;BME280;6687;47.790;7.322;2022-11-09T07:59:02;98820.13;;;13.92;88.11
13241;BME280;6687;47.790;7.322;2022-11-09T08:01:29;98815.66;;;14.00;87.68
13241;BME280;6687;47.790;7.322;2022-11-09T08:03:56;98816.50;;;14.02;87.23
13241;BME280;6687;47.790;7.322;2022-11-09T08:06:22;98818.16;;;14.09;86.87
13241;BME280;6687;47.790;7.322;2022-11-09T08:08:52;98813.69;;;14.16;86.86
13241;BME280;6687;47.790;7.322;2022-11-09T08:11:19;98818.84;;;14.21;86.82
13241;BME280;6687;47.790;7.322;2022-11-09T08:13:48;98818.75;;;14.27;86.54
13241;BME280;6687;47.790;7.322;2022-11-09T08:16:14;98823.97;;;14.28;85.83
13241;BME280;6687;47.790;7.322;2022-11-09T08:18:41;98823.84;;;14.35;85.78
13241;BME280;6687;47.790;7.322;2022-11-09T08:21:08;98828.97;;;14.41;85.19
13241;BME280;6687;47.790;7.322;2022-11-09T08:23:35;98825.47;;;14.42;85.30
13241;BME280;6687;47.790;7.322;2022-11-09T08:26:03;98827.00;;;14.55;84.86
13241;BME280;6687;47.790;7.322;2022-11-09T08:28:30;98825.25;;;14.57;84.68
13241;BME280;6687;47.790;7.322;2022-11-09T08:31:00;98829.44;;;14.66;84.84
13241;BME280;6687;47.790;7.322;2022-11-09T08:33:29;98829.41;;;14.69;84.51
13241;BME280;6687;47.790;7.322;2022-11-09T08:35:56;98831.06;;;14.73;84.26
13241;BME280;6687;47.790;7.322;2022-11-09T08:38:23;98827.53;;;14.77;84.13
13241;BME280;6687;47.790;7.322;2022-11-09T08:40:49;98822.28;;;14.80;84.17
13241;BME280;6687;47.790;7.322;2022-11-09T08:43:21;98829.16;;;14.84;84.05
13241;BME280;6687;47.790;7.322;2022-11-09T08:45:48;98828.16;;;14.90;83.77
13241;BME280;6687;47.790;7.322;2022-11-09T08:48:16;98827.25;;;14.93;83.64
13241;BME280;6687;47.790;7.322;2022-11-09T08:50:43;98826.34;;;14.95;83.79
13241;BME280;6687;47.790;7.322;2022-11-09T08:53:09;98826.19;;;15.04;83.07
13241;BME280;6687;47.790;7.322;2022-11-09T08:55:36;98830.34;;;15.13;83.13
13241;BME280;6687;47.790;7.322;2022-11-09T08:58:03;98833.78;;;15.15;82.59
13241;BME280;6687;47.790;7.322;2022-11-09T09:00:30;98833.66;;;15.23;82.10
13241;BME280;6687;47.790;7.322;2022-11-09T09:02:57;98824.78;;;15.31;82.16
13241;BME280;6687;47.790;7.322;2022-11-09T09:05:25;98835.91;;;15.41;82.48
13241;BME280;6687;47.790;7.322;2022-11-09T09:07:51;98832.44;;;15.41;81.17
13241;BME280;6687;47.790;7.322;2022-11-09T09:10:18;98832.22;;;15.51;81.17
13241;BME280;6687;47.790;7.322;2022-11-09T09:12:45;98836.66;;;15.48;80.82
13241;BME280;6687;47.790;7.322;2022-11-09T09:15:12;98828.81;;;15.48;81.18
13241;BME280;6687;47.790;7.322;2022-11-09T09:17:38;98830.53;;;15.49;81.34
13241;BME280;6687;47.790;7.322;2022-11-09T09:20:06;98843.47;;;15.54;82.74
13241;BME280;6687;47.790;7.322;2022-11-09T09:22:34;98837.50;;;15.50;82.04
13241;BME280;6687;47.790;7.322;2022-11-09T09:25:02;98844.28;;;15.57;81.66
13241;BME280;6687;47.790;7.322;2022-11-09T09:27:29;98843.31;;;15.61;81.48
13241;BME280;6687;47.790;7.322;2022-11-09T09:29:56;98843.28;;;15.64;81.39
13241;BME280;6687;47.790;7.322;2022-11-09T09:32:23;98848.59;;;15.60;81.04
13241;BME280;6687;47.790;7.322;2022-11-09T09:34:50;98845.13;;;15.58;81.57
13241;BME280;6687;47.790;7.322;2022-11-09T09:37:17;98844.25;;;15.59;81.67
13241;BME280;6687;47.790;7.322;2022-11-09T09:39:45;98852.94;;;15.59;81.73
13241;BME280;6687;47.790;7.322;2022-11-09T09:42:15;98855.50;;;15.64;81.46
13241;BME280;6687;47.790;7.322;2022-11-09T09:44:48;98857.44;;;15.54;82.90
13241;BME280;6687;47.790;7.322;2022-11-09T09:47:21;98865.09;;;15.62;82.26
13241;BME280;6687;47.790;7.322;2022-11-09T09:49:53;98863.41;;;15.59;82.23
13241;BME280;6687;47.790;7.322;2022-11-09T09:52:24;98864.31;;;15.58;82.39
13241;BME280;6687;47.790;7.322;2022-11-09T09:54:59;98856.53;;;15.54;82.18
13241;BME280;6687;47.790;7.322;2022-11-09T09:57:28;98857.44;;;15.54;82.42
13241;BME280;6687;47.790;7.322;2022-11-09T09:59:59;98860.78;;;15.59;82.80
13241;BME280;6687;47.790;7.322;2022-11-09T10:02:28;98855.56;;;15.59;82.70
13241;BME280;6687;47.790;7.322;2022-11-09T10:04:56;98855.50;;;15.62;82.78
13241;BME280;6687;47.790;7.322;2022-11-09T10:07:27;98859.00;;;15.61;82.63
13241;BME280;6687;47.790;7.322;2022-11-09T10:10:07;98857.97;;;15.70;82.21
13241;BME280;6687;47.790;7.322;2022-11-09T10:12:44;98847.56;;;15.67;82.35
13241;BME280;6687;47.790;7.322;2022-11-09T10:15:21;98848.44;;;15.67;82.49
13241;BME280;6687;47.790;7.322;2022-11-09T10:18:01;98850.88;;;15.77;82.44
13241;BME280;6687;47.790;7.322;2022-11-09T10:20:45;98842.22;;;15.75;82.40
13241;BME280;6687;47.790;7.322;2022-11-09T10:26:17;98840.38;;;15.80;82.72
13241;BME280;6687;47.790;7.322;2022-11-09T10:28:48;98833.44;;;15.79;83.16
13241;BME280;6687;47.790;7.322;2022-11-09T10:31:18;98834.22;;;15.84;82.59
13241;BME280;6687;47.790;7.322;2022-11-09T10:33:48;98829.84;;;15.84;82.66
13241;BME280;6687;47.790;7.322;2022-11-09T10:36:23;98828.91;;;15.87;82.50
13241;BME280;6687;47.790;7.322;2022-11-09T10:38:53;98834.91;;;15.90;83.34
13241;BME280;6687;47.790;7.322;2022-11-09T10:41:28;98832.34;;;15.89;83.15
13241;BME280;6687;47.790;7.322;2022-11-09T10:43:56;98825.28;;;15.93;82.68
13241;BME280;6687;47.790;7.322;2022-11-09T10:46:23;98826.97;;;15.95;83.00
13241;BME280;6687;47.790;7.322;2022-11-09T10:48:51;98823.41;;;15.99;82.85
13241;BME280;6687;47.790;7.322;2022-11-09T10:51:33;98820.78;;;15.99;82.84
13241;BME280;6687;47.790;7.322;2022-11-09T10:54:18;98822.38;;;16.06;82.66
13241;BME280;6687;47.790;7.322;2022-11-09T10:56:50;98821.41;;;16.10;82.93
13241;BME280;6687;47.790;7.322;2022-11-09T10:59:35;98819.56;;;16.16;82.79
13241;BME280;6687;47.790;7.322;2022-11-09T11:02:41;98822.03;;;16.22;82.25
13241;BME280;6687;47.790;7.322;2022-11-09T11:05:35;98827.16;;;16.25;82.63
13241;BME280;6687;47.790;7.322;2022-11-09T11:08:25;98824.56;;;16.25;82.83
13241;BME280;6687;47.790;7.322;2022-11-09T11:11:16;98825.53;;;16.21;81.78
13241;BME280;6687;47.790;7.322;2022-11-09T11:13:44;98819.56;;;16.16;81.93
13241;BME280;6687;47.790;7.322;2022-11-09T11:16:31;98827.31;;;16.19;82.03
13241;BME280;6687;47.790;7.322;2022-11-09T11:18:59;98827.44;;;16.14;82.28
13241;BME280;6687;47.790;7.322;2022-11-09T11:21:27;98822.25;;;16.11;83.56
13241;BME280;6687;47.790;7.322;2022-11-09T11:24:15;98819.69;;;16.09;82.71
13241;BME280;6687;47.790;7.322;2022-11-09T11:26:48;98819.69;;;16.09;82.75
13241;BME280;6687;47.790;7.322;2022-11-09T11:29:33;98819.75;;;16.06;82.84
13241;BME280;6687;47.790;7.322;2022-11-09T11:32:02;98823.34;;;16.02;83.29
13241;BME280;6687;47.790;7.322;2022-11-09T11:34:37;98823.41;;;15.99;83.50
13241;BME280;6687;47.790;7.322;2022-11-09T11:37:19;98826.91;;;15.98;83.55
13241;BME280;6687;47.790;7.322;2022-11-09T11:39:58;98825.25;;;15.96;83.79
13241;BME280;6687;47.790;7.322;2022-11-09T11:42:39;98817.44;;;15.94;83.88
13241;BME280;6687;47.790;7.322;2022-11-09T11:45:21;98819.22;;;15.92;83.98
13241;BME280;6687;47.790;7.322;2022-11-09T11:48:15;98817.47;;;15.91;84.72
13241;BME280;6687;47.790;7.322;2022-11-09T11:50:49;98814.13;;;15.86;84.78
13241;BME280;6687;47.790;7.322;2022-11-09T11:53:29;98821.88;;;15.89;84.19
13241;BME280;6687;47.790;7.322;2022-11-09T11:56:18;98823.75;;;15.84;84.62
13241;BME280;6687;47.790;7.322;2022-11-09T12:01:54;98823.75;;;15.84;84.92
13241;BME280;6687;47.790;7.322;2022-11-09T12:04:35;98810.72;;;15.82;85.19
13241;BME280;6687;47.790;7.322;2022-11-09T12:07:14;98804.63;;;15.82;85.11
13241;BME280;6687;47.790;7.322;2022-11-09T12:09:58;98809.88;;;15.82;85.44
13241;BME280;6687;47.790;7.322;2022-11-09T12:12:37;98809.13;;;15.75;86.17
13241;BME280;6687;47.790;7.322;2022-11-09T12:15:20;98815.16;;;15.79;86.43
13241;BME280;6687;47.790;7.322;2022-11-09T12:17:59;98806.47;;;15.77;86.22
13241;BME280;6687;47.790;7.322;2022-11-09T12:20:32;98807.31;;;15.79;86.23
13241;BME280;6687;47.790;7.322;2022-11-09T12:23:14;98809.91;;;15.79;85.97
13241;BME280;6687;47.790;7.322;2022-11-09T12:25:48;98816.06;;;15.76;85.99
13241;BME280;6687;47.790;7.322;2022-11-09T12:28:37;98811.72;;;15.77;85.99
13241;BME280;6687;47.790;7.322;2022-11-09T12:31:21;98813.50;;;15.75;86.18
13241;BME280;6687;47.790;7.322;2022-11-09T12:33:57;98810.88;;;15.75;86.66
13241;BME280;6687;47.790;7.322;2022-11-09T12:36:32;98809.13;;;15.75;86.52
13241;BME280;6687;47.790;7.322;2022-11-09T12:39:05;98813.50;;;15.75;86.78
13241;BME280;6687;47.790;7.322;2022-11-09T12:41:35;98808.25;;;15.75;86.61
13241;BME280;6687;47.790;7.322;2022-11-09T12:44:08;98805.63;;;15.76;86.45
13241;BME280;6687;47.790;7.322;2022-11-09T12:46:40;98806.50;;;15.75;86.43
13241;BME280;6687;47.790;7.322;2022-11-09T12:49:22;98803.06;;;15.71;86.69
13241;BME280;6687;47.790;7.322;2022-11-09T12:51:52;98802.16;;;15.76;86.83
13241;BME280;6687;47.790;7.322;2022-11-09T12:54:20;98797.81;;;15.75;86.96
13241;BME280;6687;47.790;7.322;2022-11-09T12:56:52;98797.75;;;15.78;87.06
13241;BME280;6687;47.790;7.322;2022-11-09T12:59:20;98796.88;;;15.77;86.86
13241;BME280;6687;47.790;7.322;2022-11-09T13:01:52;98795.97;;;15.80;86.88
13241;BME280;6687;47.790;7.322;2022-11-09T13:04:23;98800.28;;;15.82;86.45
13241;BME280;6687;47.790;7.322;2022-11-09T13:07:16;98802.03;;;15.82;86.61
13241;BME280;6687;47.790;7.322;2022-11-09T13:09:43;98803.75;;;15.81;87.04
13241;BME280;6687;47.790;7.322;2022-11-09T13:12:25;98807.19;;;15.83;86.59
13241;BME280;6687;47.790;7.322;2022-11-09T13:14:54;98813.44;;;15.78;86.69
13241;BME280;6687;47.790;7.322;2022-11-09T13:17:52;98808.97;;;15.81;87.16
13241;BME280;6687;47.790;7.322;2022-11-09T13:20:41;98816.88;;;15.80;86.70
13241;BME280;6687;47.790;7.322;2022-11-09T13:23:25;98810.75;;;15.81;86.71
13241;BME280;6687;47.790;7.322;2022-11-09T13:25:52;98814.28;;;15.78;86.80
13241;BME280;6687;47.790;7.322;2022-11-09T13:34:43;98816.94;;;15.77;87.24
13241;BME280;6687;47.790;7.322;2022-11-09T13:37:46;98832.59;;;15.77;87.11
13241;BME280;6687;47.790;7.322;2022-11-09T13:40:42;98834.38;;;15.75;87.35
13241;BME280;6687;47.790;7.322;2022-11-09T13:43:24;98839.72;;;15.68;88.08
13241;BME280;6687;47.790;7.322;2022-11-09T13:45:54;98839.72;;;15.68;88.68
13241;BME280;6687;47.790;7.322;2022-11-09T13:48:39;98843.16;;;15.70;87.43
13241;BME280;6687;47.790;7.322;2022-11-09T13:51:08;98844.09;;;15.68;87.32
13241;BME280;6687;47.790;7.322;2022-11-09T13:53:53;98845.81;;;15.67;87.41
13241;BME280;6687;47.790;7.322;2022-11-09T13:56:25;98847.56;;;15.67;87.62
13241;BME280;6687;47.790;7.322;2022-11-09T13:58:53;98851.94;;;15.66;87.76
13241;BME280;6687;47.790;7.322;2022-11-09T14:01:29;98857.31;;;15.60;89.65
13241;BME280;6687;47.790;7.322;2022-11-09T14:03:56;98860.75;;;15.62;88.77
13241;BME280;6687;47.790;7.322;2022-11-09T14:06:24;98867.75;;;15.60;88.60
13241;BME280;6687;47.790;7.322;2022-11-09T14:08:55;98865.97;;;15.62;88.09
13241;BME280;6687;47.790;7.322;2022-11-09T14:11:41;98870.34;;;15.60;88.36
13241;BME280;6687;47.790;7.322;2022-11-09T14:14:30;98869.44;;;15.61;88.35
13241;BME280;6687;47.790;7.322;2022-11-09T14:17:09;98876.41;;;15.62;87.93
13241;BME280;6687;47.790;7.322;2022-11-09T14:19:45;98873.91;;;15.56;88.86
13241;BME280;6687;47.790;7.322;2022-11-09T14:22:17;98866.09;;;15.56;88.53
13241;BME280;6687;47.790;7.322;2022-11-09T14:24:46;98874.78;;;15.55;88.51
13241;BME280;6687;47.790;7.322;2022-11-09T14:27:16;98871.34;;;15.53;88.58
13241;BME280;6687;47.790;7.322;2022-11-09T14:29:49;98869.66;;;15.52;89.09
13241;BME280;6687;47.790;7.322;2022-11-09T14:32:30;98873.22;;;15.48;88.97
13241;BME280;6687;47.790;7.322;2022-11-09T14:35:18;98860.16;;;15.48;89.53
13241;BME280;6687;47.790;7.322;2022-11-09T14:37:45;98873.25;;;15.46;89.09
13241;BME280;6687;47.790;7.322;2022-11-09T14:40:23;98887.22;;;15.44;89.35
13241;BME280;6687;47.790;7.322;2022-11-09T14:42:53;98888.97;;;15.42;89.62
13241;BME280;6687;47.790;7.322;2022-11-09T14:45:21;98889.03;;;15.39;90.21
13241;BME280;6687;47.790;7.322;2022-11-09T14:47:50;98892.50;;;15.41;89.94
13241;BME280;6687;47.790;7.322;2022-11-09T14:50:21;98889.03;;;15.39;90.19
13241;BME280;6687;47.790;7.322;2022-11-09T14:52:50;98882.97;;;15.38;90.22
13241;BME280;6687;47.790;7.322;2022-11-09T14:55:20;98889.91;;;15.38;90.70
13241;BME280;6687;47.790;7.322;2022-11-09T14:57:49;98898.66;;;15.37;90.88
13241;BME280;6687;47.790;7.322;2022-11-09T15:00:29;98899.59;;;15.32;90.93
13241;BME280;6687;47.790;7.322;2022-11-09T15:02:58;98901.53;;;15.21;91.69
13241;BME280;6687;47.790;7.322;2022-11-09T15:05:36;98900.56;;;15.28;91.22
13241;BME280;6687;47.790;7.322;2022-11-09T15:08:06;98902.44;;;15.20;91.97
13241;BME280;6687;47.790;7.322;2022-11-09T15:10:47;98910.19;;;15.25;91.34
13241;BME280;6687;47.790;7.322;2022-11-09T15:13:14;98918.97;;;15.19;91.63
13241;BME280;6687;47.790;7.322;2022-11-09T15:15:49;98923.44;;;15.14;92.05
13241;BME280;6687;47.790;7.322;2022-11-09T15:18:18;98920.94;;;15.06;92.31
13241;BME280;6687;47.790;7.322;2022-11-09T15:20:46;98929.63;;;15.07;92.55
13241;BME280;6687;47.790;7.322;2022-11-09T15:23:34;98930.50;;;15.06;92.57
13241;BME280;6687;47.790;7.322;2022-11-09T15:26:03;98949.69;;;15.05;92.36
13241;BME280;6687;47.790;7.322;2022-11-09T15:28:30;98952.28;;;15.05;92.00
13241;BME280;6687;47.790;7.322;2022-11-09T15:31:11;98961.91;;;15.00;92.51
13241;BME280;6687;47.790;7.322;2022-11-09T15:33:45;98949.81;;;14.96;92.65
13241;BME280;6687;47.790;7.322;2022-11-09T15:36:22;98947.53;;;14.76;94.87
13241;BME280;6687;47.790;7.322;2022-11-09T15:39:03;98953.44;;;14.88;93.54
13241;BME280;6687;47.790;7.322;2022-11-09T15:41:31;98951.78;;;14.81;93.95
13241;BME280;6687;47.790;7.322;2022-11-09T15:43:58;98955.31;;;14.79;94.10
13241;BME280;6687;47.790;7.322;2022-11-09T15:46:34;98956.88;;;14.89;93.38
13241;BME280;6687;47.790;7.322;2022-11-09T15:49:13;98954.28;;;14.87;93.42
13241;BME280;6687;47.790;7.322;2022-11-09T15:51:41;98958.66;;;14.87;93.32
13241;BME280;6687;47.790;7.322;2022-11-09T15:54:09;98962.97;;;14.89;92.48
13241;BME280;6687;47.790;7.322;2022-11-09T15:56:37;98963.13;;;14.80;93.34
13241;BME280;6687;47.790;7.322;2022-11-09T15:59:04;98964.81;;;14.81;93.36
13241;BME280;6687;47.790;7.322;2022-11-09T16:01:31;98969.19;;;14.82;93.38
13241;BME280;6687;47.790;7.322;2022-11-09T16:03:57;98966.56;;;14.82;92.95
13241;BME280;6687;47.790;7.322;2022-11-09T16:06:24;98983.16;;;14.78;92.85
13241;BME280;6687;47.790;7.322;2022-11-09T16:08:51;98987.56;;;14.73;93.32
13241;BME280;6687;47.790;7.322;2022-11-09T16:11:18;98986.72;;;14.71;93.54
13241;BME280;6687;47.790;7.322;2022-11-09T16:13:47;98985.13;;;14.62;94.04
13241;BME280;6687;47.790;7.322;2022-11-09T16:16:14;98989.41;;;14.65;94.11
13241;BME280;6687;47.790;7.322;2022-11-09T16:18:41;98995.47;;;14.68;93.59
13241;BME280;6687;47.790;7.322;2022-11-09T16:21:10;98998.09;;;14.67;93.82
13241;BME280;6687;47.790;7.322;2022-11-09T16:23:37;99001.56;;;14.66;93.58
13241;BME280;6687;47.790;7.322;2022-11-09T16:26:06;99006.84;;;14.63;93.93
13241;BME280;6687;47.790;7.322;2022-11-09T16:28:33;99003.38;;;14.61;93.69
13241;BME280;6687;47.790;7.322;2022-11-09T16:31:02;99011.22;;;14.61;93.71
13241;BME280;6687;47.790;7.322;2022-11-09T16:33:29;99011.22;;;14.61;93.79
13241;BME280;6687;47.790;7.322;2022-11-09T16:35:58;99009.50;;;14.55;94.26
13241;BME280;6687;47.790;7.322;2022-11-09T16:38:27;99013.00;;;14.57;94.19
13241;BME280;6687;47.790;7.322;2022-11-09T16:40:55;99021.69;;;14.56;94.04
13241;BME280;6687;47.790;7.322;2022-11-09T16:43:22;99019.09;;;14.55;93.85
13241;BME280;6687;47.790;7.322;2022-11-09T16:45:49;99024.31;;;14.51;93.66
13241;BME280;6687;47.790;7.322;2022-11-09T16:48:17;99025.34;;;14.40;94.95
13241;BME280;6687;47.790;7.322;2022-11-09T16:50:44;99026.19;;;14.43;95.43
13241;BME280;6687;47.790;7.322;2022-11-09T16:53:11;99030.53;;;14.44;95.05
13241;BME280;6687;47.790;7.322;2022-11-09T16:55:38;99040.91;;;14.46;94.78
13241;BME280;6687;47.790;7.322;2022-11-09T16:58:05;99038.44;;;14.35;95.01
13241;BME280;6687;47.790;7.322;2022-11-09T17:00:32;99041.84;;;14.40;94.75
13241;BME280;6687;47.790;7.322;2022-11-09T17:03:00;99046.94;;;14.49;94.15
13241;BME280;6687;47.790;7.322;2022-11-09T17:05:30;99048.78;;;14.41;94.65
13241;BME280;6687;47.790;7.322;2022-11-09T17:07:57;99051.56;;;14.29;95.52
13241;BME280;6687;47.790;7.322;2022-11-09T17:10:23;99056.72;;;14.32;95.66
13241;BME280;6687;47.790;7.322;2022-11-09T17:12:50;99055.78;;;14.36;95.21
13241;BME280;6687;47.790;7.322;2022-11-09T17:15:17;99066.22;;;14.38;94.69
13241;BME280;6687;47.790;7.322;2022-11-09T17:17:44;99071.50;;;14.30;95.86
13241;BME280;6687;47.790;7.322;2022-11-09T17:20:11;99071.50;;;14.33;95.00
13241;BME280;6687;47.790;7.322;2022-11-09T17:22:39;99069.81;;;14.29;95.06
13241;BME280;6687;47.790;7.322;2022-11-09T17:25:06;99078.47;;;14.28;95.38
13241;BME280;6687;47.790;7.322;2022-11-09T17:27:34;99082.78;;;14.33;94.82
13241;BME280;6687;47.790;7.322;2022-11-09T17:30:03;99083.63;;;14.34;94.76
13241;BME280;6687;47.790;7.322;2022-11-09T17:32:29;99084.59;;;14.25;95.23
13241;BME280;6687;47.790;7.322;2022-11-09T17:34:56;99081.97;;;14.27;95.32
13241;BME280;6687;47.790;7.322;2022-11-09T17:37:23;99092.34;;;14.33;94.76
13241;BME280;6687;47.790;7.322;2022-11-09T17:39:51;99097.56;;;14.33;94.96
13241;BME280;6687;47.790;7.322;2022-11-09T17:42:18;99104.53;;;14.31;94.74
13241;BME280;6687;47.790;7.322;2022-11-09T17:44:45;99101.94;;;14.29;95.16
13241;BME280;6687;47.790;7.322;2022-11-09T17:47:12;99101.09;;;14.26;95.57
13241;BME280;6687;47.790;7.322;2022-11-09T17:49:38;99110.66;;;14.25;95.26
13241;BME280;6687;47.790;7.322;2022-11-09T17:52:05;99113.28;;;14.24;95.94
13241;BME280;6687;47.790;7.322;2022-11-09T17:54:32;99120.16;;;14.31;94.59
13241;BME280;6687;47.790;7.322;2022-11-09T17:57:00;99122.78;;;14.28;95.19
13241;BME280;6687;47.790;7.322;2022-11-09T17:59:27;99126.22;;;14.33;94.61
13241;BME280;6687;47.790;7.322;2022-11-09T18:01:53;99127.13;;;14.29;94.56
13241;BME280;6687;47.790;7.322;2022-11-09T18:04:20;99128.84;;;14.30;95.10
13241;BME280;6687;47.790;7.322;2022-11-09T18:06:47;99130.59;;;14.28;94.76
13241;BME280;6687;47.790;7.322;2022-11-09T18:09:14;99134.03;;;14.35;94.90
13241;BME280;6687;47.790;7.322;2022-11-09T18:11:41;99131.44;;;14.31;94.49
13241;BME280;6687;47.790;7.322;2022-11-09T18:14:09;99139.41;;;14.19;95.97
13241;BME280;6687;47.790;7.322;2022-11-09T18:16:36;99134.06;;;14.30;94.68
13241;BME280;6687;47.790;7.322;2022-11-09T18:19:04;99138.44;;;14.28;95.17
13241;BME280;6687;47.790;7.322;2022-11-09T18:21:30;99139.25;;;14.33;93.98
13241;BME280;6687;47.790;7.322;2022-11-09T18:23:58;99140.97;;;14.34;93.73
13241;BME280;6687;47.790;7.322;2022-11-09T18:26:25;99135.75;;;14.34;93.64
13241;BME280;6687;47.790;7.322;2022-11-09T18:28:54;99154.97;;;14.27;94.32
13241;BME280;6687;47.790;7.322;2022-11-09T18:31:22;99141.16;;;14.19;95.18
13241;BME280;6687;47.790;7.322;2022-11-09T18:33:49;99142.78;;;14.26;94.40
13241;BME280;6687;47.790;7.322;2022-11-09T18:36:17;99142.78;;;14.26;94.38
13241;BME280;6687;47.790;7.322;2022-11-09T18:38:45;99159.28;;;14.26;93.90
13241;BME280;6687;47.790;7.322;2022-11-09T18:41:15;99161.09;;;14.18;94.57
13241;BME280;6687;47.790;7.322;2022-11-09T18:43:42;99163.72;;;14.20;94.70
13241;BME280;6687;47.790;7.322;2022-11-09T18:46:11;99164.63;;;14.16;94.67
13241;BME280;6687;47.790;7.322;2022-11-09T18:48:39;99153.47;;;14.00;95.25
13241;BME280;6687;47.790;7.322;2022-11-09T18:51:07;99156.78;;;14.16;94.58
13241;BME280;6687;47.790;7.322;2022-11-09T18:53:35;99150.78;;;14.07;95.02
13241;BME280;6687;47.790;7.322;2022-11-09T18:56:04;99146.50;;;14.02;95.14
13241;BME280;6687;47.790;7.322;2022-11-09T18:58:31;99145.59;;;14.06;95.24
13241;BME280;6687;47.790;7.322;2022-11-09T19:01:01;99148.19;;;14.07;95.42
13241;BME280;6687;47.790;7.322;2022-11-09T19:03:28;99151.66;;;14.06;95.54